createdAt,value
2022-08-22T00:00:00.000Z,8.18
2022-08-22T00:15:00.000Z,8.55
2022-08-22T00:30:00.000Z,8.81
2022-08-22T00:45:00.000Z,9.58
2022-08-22T01:15:00.000Z,10
2022-08-22T01:15:00.000Z,9.34
2022-08-22T01:30:00.000Z,9.32
2022-08-22T01:45:00.000Z,9.61
2022-08-22T02:00:00.000Z,10.3
2022-08-22T02:15:00.000Z,9.39
2022-08-22T02:30:00.000Z,10.53
2022-08-22T02:45:00.000Z,10.46
2022-08-22T03:00:00.000Z,9.54
2022-08-22T03:15:00.000Z,9.28
2022-08-22T03:30:00.000Z,9.49
2022-08-22T03:45:00.000Z,10.07
2022-08-22T04:00:00.000Z,10.78
2022-08-22T04:15:00.000Z,13.01
2022-08-22T04:30:00.000Z,15.27
2022-08-22T04:45:00.000Z,12.56
2022-08-22T05:00:00.000Z,12.15
2022-08-22T05:15:00.000Z,11.91
2022-08-22T05:30:00.000Z,11.82
2022-08-22T05:45:00.000Z,10.76
2022-08-22T06:00:00.000Z,10.79
2022-08-22T06:15:00.000Z,11.08
2022-08-22T06:30:00.000Z,11.14
2022-08-22T06:45:00.000Z,10.72
2022-08-22T07:00:00.000Z,10.81
2022-08-22T07:15:00.000Z,10.27
2022-08-22T07:30:00.000Z,9.88
2022-08-22T07:45:00.000Z,9.08
2022-08-22T08:00:00.000Z,9.58
2022-08-22T08:15:00.000Z,9.95
2022-08-22T08:30:00.000Z,8.91
2022-08-22T08:45:00.000Z,7.82
2022-08-22T09:00:00.000Z,6.12
2022-08-22T09:15:00.000Z,6.21
2022-08-22T09:30:00.000Z,7.46
2022-08-22T09:45:00.000Z,6.67
2022-08-22T10:00:00.000Z,5.66
2022-08-22T10:15:00.000Z,6.32
2022-08-22T10:30:00.000Z,5.16
2022-08-22T10:45:00.000Z,4.53
2022-08-22T11:00:00.000Z,4.92
2022-08-22T11:15:00.000Z,5.08
2022-08-22T11:30:00.000Z,5.67
2022-08-22T11:45:00.000Z,3.53
2022-08-22T12:00:00.000Z,3.51
2022-08-22T12:15:00.000Z,3.47
2022-08-22T12:30:00.000Z,3.72
2022-08-22T12:45:00.000Z,4.72
2022-08-22T13:00:00.000Z,4.09
2022-08-22T13:15:00.000Z,4.16
2022-08-22T13:30:00.000Z,4.35
2022-08-22T13:45:00.000Z,4.47
2022-08-22T14:00:00.000Z,4.21
2022-08-22T14:15:00.000Z,4.73
2022-08-22T14:30:00.000Z,5.08
2022-08-22T14:45:00.000Z,5.26
2022-08-22T15:00:00.000Z,5.08
2022-08-22T15:15:00.000Z,4.98
2022-08-22T15:30:00.000Z,4.72
2022-08-22T15:45:00.000Z,4.45
2022-08-22T16:00:00.000Z,5.15
2022-08-22T16:15:00.000Z,4.44
2022-08-22T16:30:00.000Z,4.42
2022-08-22T16:45:00.000Z,4.42
2022-08-22T17:00:00.000Z,4.99
2022-08-22T17:15:00.000Z,4.81
2022-08-22T17:30:00.000Z,4.76
2022-08-22T17:45:00.000Z,4.34
2022-08-22T18:00:00.000Z,3.49
2022-08-22T18:15:00.000Z,3.65
2022-08-22T18:30:00.000Z,3.53
2022-08-22T18:45:00.000Z,3.88
2022-08-22T19:00:00.000Z,3.47
2022-08-22T19:15:00.000Z,3.45
2022-08-22T19:30:00.000Z,4.2
2022-08-22T19:45:00.000Z,3.76
2022-08-22T20:00:00.000Z,4.86
2022-08-22T20:15:00.000Z,4.62
2022-08-22T20:30:00.000Z,4.32
2022-08-22T20:45:00.000Z,4.39
2022-08-22T21:00:00.000Z,4.94
2022-08-22T21:15:00.000Z,5.35
2022-08-22T21:30:00.000Z,5.72
2022-08-22T21:45:00.000Z,5.08
2022-08-22T22:00:00.000Z,5.25
2022-08-22T22:15:00.000Z,5.08
2022-08-22T22:30:00.000Z,5.42
2022-08-22T22:45:00.000Z,5.35
2022-08-22T23:00:00.000Z,6.54
2022-08-22T23:15:00.000Z,5.36
2022-08-22T23:30:00.000Z,5.55
2022-08-22T23:45:00.000Z,5.25
